sensor_id;sensor_type;location;lat;lon;timestamp;pressure;altitude;pressure_sealevel;temperature;humidity
54924;BME280;40825;52.270;20.984;2023-01-29T00:01:06;101480.65;;;-1.55;77.29
54924;BME280;40825;52.270;20.984;2023-01-29T00:03:35;101486.77;;;-1.55;77.51
54924;BME280;40825;52.270;20.984;2023-01-29T00:06:06;101481.00;;;-1.55;77.41
54924;BME280;40825;52.270;20.984;2023-01-29T00:08:36;101478.02;;;-1.55;77.60
54924;BME280;40825;52.270;20.984;2023-01-29T00:11:04;101468.20;;;-1.50;77.76
54924;BME280;40825;52.270;20.984;2023-01-29T00:13:30;101463.61;;;-1.49;77.84
54924;BME280;40825;52.270;20.984;2023-01-29T00:15:57;101462.77;;;-1.47;78.12
54924;BME280;40825;52.270;20.984;2023-01-29T00:18:23;101462.73;;;-1.43;78.17
54924;BME280;40825;52.270;20.984;2023-01-29T00:20:50;101461.05;;;-1.41;77.77
54924;BME280;40825;52.270;20.984;2023-01-29T00:23:16;101448.43;;;-1.40;77.72
54924;BME280;40825;52.270;20.984;2023-01-29T00:25:42;101453.03;;;-1.38;78.08
54924;BME280;40825;52.270;20.984;2023-01-29T00:28:08;101449.09;;;-1.40;77.85
54924;BME280;40825;52.270;20.984;2023-01-29T00:30:35;101442.21;;;-1.42;78.00
54924;BME280;40825;52.270;20.984;2023-01-29T00:33:01;101445.60;;;-1.40;77.82
54924;BME280;40825;52.270;20.984;2023-01-29T00:35:26;101445.68;;;-1.41;77.66
54924;BME280;40825;52.270;20.984;2023-01-29T00:37:54;101443.92;;;-1.41;77.85
54924;BME280;40825;52.270;20.984;2023-01-29T00:40:20;101441.27;;;-1.43;77.52
54924;BME280;40825;52.270;20.984;2023-01-29T00:42:47;101441.98;;;-1.44;76.92
54924;BME280;40825;52.270;20.984;2023-01-29T00:45:31;101442.46;;;-1.46;77.07
54924;BME280;40825;52.270;20.984;2023-01-29T00:47:57;101436.85;;;-1.49;76.99
54924;BME280;40825;52.270;20.984;2023-01-29T00:50:22;101430.60;;;-1.49;77.15
54924;BME280;40825;52.270;20.984;2023-01-29T00:52:48;101420.63;;;-1.49;77.33
54924;BME280;40825;52.270;20.984;2023-01-29T00:55:16;101418.96;;;-1.50;76.92
54924;BME280;40825;52.270;20.984;2023-01-29T00:57:41;101424.48;;;-1.49;77.34
54924;BME280;40825;52.270;20.984;2023-01-29T01:00:10;101421.44;;;-1.48;77.15
54924;BME280;40825;52.270;20.984;2023-01-29T01:02:36;101411.34;;;-1.48;77.25
54924;BME280;40825;52.270;20.984;2023-01-29T01:05:21;101405.89;;;-1.47;76.95
54924;BME280;40825;52.270;20.984;2023-01-29T01:07:50;101399.00;;;-1.49;76.82
54924;BME280;40825;52.270;20.984;2023-01-29T01:10:26;101393.35;;;-1.51;76.81
54924;BME280;40825;52.270;20.984;2023-01-29T01:13:02;101387.73;;;-1.54;77.01
54924;BME280;40825;52.270;20.984;2023-01-29T01:15:31;101379.33;;;-1.54;76.72
54924;BME280;40825;52.270;20.984;2023-01-29T01:17:59;101378.54;;;-1.55;76.67
54924;BME280;40825;52.270;20.984;2023-01-29T01:20:28;101375.27;;;-1.56;77.18
54924;BME280;40825;52.270;20.984;2023-01-29T01:22:54;101369.13;;;-1.55;77.04
54924;BME280;40825;52.270;20.984;2023-01-29T01:25:21;101367.96;;;-1.53;77.03
54924;BME280;40825;52.270;20.984;2023-01-29T01:27:54;101372.98;;;-1.53;76.92
54924;BME280;40825;52.270;20.984;2023-01-29T01:30:20;101376.68;;;-1.53;77.07
54924;BME280;40825;52.270;20.984;2023-01-29T01:32:46;101370.91;;;-1.53;77.60
54924;BME280;40825;52.270;20.984;2023-01-29T01:35:11;101372.52;;;-1.50;77.54
54924;BME280;40825;52.270;20.984;2023-01-29T01:37:39;101371.64;;;-1.50;77.43
54924;BME280;40825;52.270;20.984;2023-01-29T01:40:07;101371.17;;;-1.48;77.79
54924;BME280;40825;52.270;20.984;2023-01-29T01:42:40;101371.46;;;-1.47;77.40
54924;BME280;40825;52.270;20.984;2023-01-29T01:45:18;101366.25;;;-1.48;77.61
54924;BME280;40825;52.270;20.984;2023-01-29T01:47:47;101365.26;;;-1.52;76.64
54924;BME280;40825;52.270;20.984;2023-01-29T01:50:23;101374.11;;;-1.54;76.75
54924;BME280;40825;52.270;20.984;2023-01-29T01:52:54;101377.50;;;-1.55;76.73
54924;BME280;40825;52.270;20.984;2023-01-29T01:55:25;101380.58;;;-1.57;76.96
54924;BME280;40825;52.270;20.984;2023-01-29T01:57:54;101375.46;;;-1.59;76.83
54924;BME280;40825;52.270;20.984;2023-01-29T02:02:33;101376.80;;;-1.58;76.78
54924;BME280;40825;52.270;20.984;2023-01-29T02:05:17;101380.34;;;-1.62;76.85
54924;BME280;40825;52.270;20.984;2023-01-29T02:08:01;101379.52;;;-1.63;76.97
54924;BME280;40825;52.270;20.984;2023-01-29T02:10:46;101377.02;;;-1.65;76.82
54924;BME280;40825;52.270;20.984;2023-01-29T02:13:13;101382.76;;;-1.65;77.04
54924;BME280;40825;52.270;20.984;2023-01-29T02:15:44;101387.45;;;-1.65;77.07
54924;BME280;40825;52.270;20.984;2023-01-29T02:18:19;101378.14;;;-1.63;77.23
54924;BME280;40825;52.270;20.984;2023-01-29T02:21:14;101371.13;;;-1.62;77.21
54924;BME280;40825;52.270;20.984;2023-01-29T02:26:52;101367.15;;;-1.63;76.62
54924;BME280;40825;52.270;20.984;2023-01-29T02:40:51;101350.60;;;-1.70;77.18
54924;BME280;40825;52.270;20.984;2023-01-29T02:54:26;101337.01;;;-1.74;77.56
54924;BME280;40825;52.270;20.984;2023-01-29T02:57:14;101345.77;;;-1.74;77.63
54924;BME280;40825;52.270;20.984;2023-01-29T02:59:48;101347.52;;;-1.74;77.87
54924;BME280;40825;52.270;20.984;2023-01-29T03:02:19;101342.96;;;-1.74;77.91
54924;BME280;40825;52.270;20.984;2023-01-29T03:04:51;101335.10;;;-1.74;78.05
54924;BME280;40825;52.270;20.984;2023-01-29T03:07:24;101332.41;;;-1.76;78.09
54924;BME280;40825;52.270;20.984;2023-01-29T03:10:28;101328.88;;;-1.75;78.61
54924;BME280;40825;52.270;20.984;2023-01-29T03:13:20;101328.11;;;-1.74;78.42
54924;BME280;40825;52.270;20.984;2023-01-29T03:15:51;101329.35;;;-1.74;78.42
54924;BME280;40825;52.270;20.984;2023-01-29T03:18:30;101331.25;;;-1.74;78.56
54924;BME280;40825;52.270;20.984;2023-01-29T03:21:02;101328.02;;;-1.72;78.54
54924;BME280;40825;52.270;20.984;2023-01-29T03:23:50;101328.70;;;-1.72;78.48
54924;BME280;40825;52.270;20.984;2023-01-29T03:26:35;101318.93;;;-1.72;78.67
54924;BME280;40825;52.270;20.984;2023-01-29T03:29:20;101320.38;;;-1.73;78.67
54924;BME280;40825;52.270;20.984;2023-01-29T03:32:05;101321.73;;;-1.72;78.84
54924;BME280;40825;52.270;20.984;2023-01-29T03:34:39;101325.86;;;-1.71;78.80
54924;BME280;40825;52.270;20.984;2023-01-29T03:37:30;101324.86;;;-1.69;78.86
54924;BME280;40825;52.270;20.984;2023-01-29T03:39:53;101323.73;;;-1.68;78.70
54924;BME280;40825;52.270;20.984;2023-01-29T03:42:37;101322.14;;;-1.67;78.82
54924;BME280;40825;52.270;20.984;2023-01-29T03:46:01;101324.36;;;-1.66;78.84
54924;BME280;40825;52.270;20.984;2023-01-29T03:48:35;101327.67;;;-1.66;78.81
54924;BME280;40825;52.270;20.984;2023-01-29T03:51:26;101327.27;;;-1.65;78.88
54924;BME280;40825;52.270;20.984;2023-01-29T03:54:00;101320.17;;;-1.67;78.65
54924;BME280;40825;52.270;20.984;2023-01-29T03:59:24;101315.89;;;-1.68;79.10
54924;BME280;40825;52.270;20.984;2023-01-29T04:01:58;101315.45;;;-1.66;79.02
54924;BME280;40825;52.270;20.984;2023-01-29T04:04:27;101310.96;;;-1.64;79.12
54924;BME280;40825;52.270;20.984;2023-01-29T04:06:57;101307.64;;;-1.63;78.94
54924;BME280;40825;52.270;20.984;2023-01-29T04:09:35;101309.09;;;-1.64;78.83
54924;BME280;40825;52.270;20.984;2023-01-29T04:12:09;101306.59;;;-1.63;78.98
54924;BME280;40825;52.270;20.984;2023-01-29T04:14:35;101308.34;;;-1.63;79.04
54924;BME280;40825;52.270;20.984;2023-01-29T04:17:08;101306.58;;;-1.63;79.03
54924;BME280;40825;52.270;20.984;2023-01-29T04:19:35;101306.08;;;-1.63;79.15
54924;BME280;40825;52.270;20.984;2023-01-29T04:22:05;101304.23;;;-1.62;79.03
54924;BME280;40825;52.270;20.984;2023-01-29T04:24:32;101296.45;;;-1.63;79.33
54924;BME280;40825;52.270;20.984;2023-01-29T04:27:22;101287.59;;;-1.64;79.13
54924;BME280;40825;52.270;20.984;2023-01-29T04:30:04;101286.41;;;-1.65;79.24
54924;BME280;40825;52.270;20.984;2023-01-29T04:35:43;101293.84;;;-1.63;79.24
54924;BME280;40825;52.270;20.984;2023-01-29T04:46:54;101285.02;;;-1.62;79.35
54924;BME280;40825;52.270;20.984;2023-01-29T04:52:16;101279.33;;;-1.60;79.26
54924;BME280;40825;52.270;20.984;2023-01-29T04:57:35;101267.16;;;-1.58;79.23
54924;BME280;40825;52.270;20.984;2023-01-29T05:00:17;101264.54;;;-1.58;79.14
54924;BME280;40825;52.270;20.984;2023-01-29T05:02:45;101265.02;;;-1.60;79.03
54924;BME280;40825;52.270;20.984;2023-01-29T05:05:12;101272.20;;;-1.60;79.31
54924;BME280;40825;52.270;20.984;2023-01-29T05:07:41;101266.75;;;-1.60;79.41
54924;BME280;40825;52.270;20.984;2023-01-29T05:10:09;101269.54;;;-1.59;79.42
54924;BME280;40825;52.270;20.984;2023-01-29T05:12:37;101271.67;;;-1.60;79.16
54924;BME280;40825;52.270;20.984;2023-01-29T05:15:08;101272.10;;;-1.62;79.20
54924;BME280;40825;52.270;20.984;2023-01-29T05:17:36;101273.52;;;-1.62;79.32
54924;BME280;40825;52.270;20.984;2023-01-29T05:20:02;101272.63;;;-1.62;79.52
54924;BME280;40825;52.270;20.984;2023-01-29T05:22:28;101267.30;;;-1.60;79.55
54924;BME280;40825;52.270;20.984;2023-01-29T05:24:54;101268.69;;;-1.57;79.65
54924;BME280;40825;52.270;20.984;2023-01-29T05:27:25;101263.47;;;-1.57;79.52
54924;BME280;40825;52.270;20.984;2023-01-29T05:30:13;101261.02;;;-1.57;79.45
54924;BME280;40825;52.270;20.984;2023-01-29T05:32:38;101252.56;;;-1.56;79.68
54924;BME280;40825;52.270;20.984;2023-01-29T05:35:04;101253.52;;;-1.55;79.67
54924;BME280;40825;52.270;20.984;2023-01-29T05:37:30;101249.73;;;-1.55;79.55
54924;BME280;40825;52.270;20.984;2023-01-29T05:39:56;101241.73;;;-1.56;79.50
54924;BME280;40825;52.270;20.984;2023-01-29T05:42:21;101238.08;;;-1.56;79.44
54924;BME280;40825;52.270;20.984;2023-01-29T05:44:47;101238.31;;;-1.57;79.41
54924;BME280;40825;52.270;20.984;2023-01-29T05:47:12;101235.77;;;-1.58;79.57
54924;BME280;40825;52.270;20.984;2023-01-29T05:49:38;101235.09;;;-1.58;79.67
54924;BME280;40825;52.270;20.984;2023-01-29T05:52:03;101236.65;;;-1.58;79.49
54924;BME280;40825;52.270;20.984;2023-01-29T05:54:29;101235.09;;;-1.58;79.44
54924;BME280;40825;52.270;20.984;2023-01-29T05:56:54;101234.90;;;-1.58;79.51
54924;BME280;40825;52.270;20.984;2023-01-29T05:59:20;101230.52;;;-1.58;79.37
54924;BME280;40825;52.270;20.984;2023-01-29T06:01:45;101224.58;;;-1.58;79.56
54924;BME280;40825;52.270;20.984;2023-01-29T06:04:11;101228.87;;;-1.59;79.39
54924;BME280;40825;52.270;20.984;2023-01-29T06:06:36;101237.31;;;-1.58;79.59
54924;BME280;40825;52.270;20.984;2023-01-29T06:09:02;101243.60;;;-1.58;79.43
54924;BME280;40825;52.270;20.984;2023-01-29T06:11:28;101240.09;;;-1.58;79.50
54924;BME280;40825;52.270;20.984;2023-01-29T06:13:53;101239.86;;;-1.60;79.45
54924;BME280;40825;52.270;20.984;2023-01-29T06:16:19;101244.73;;;-1.59;79.61
54924;BME280;40825;52.270;20.984;2023-01-29T06:18:44;101243.56;;;-1.57;79.63
54924;BME280;40825;52.270;20.984;2023-01-29T06:21:12;101234.45;;;-1.56;79.51
54924;BME280;40825;52.270;20.984;2023-01-29T06:23:38;101236.46;;;-1.55;79.65
54924;BME280;40825;52.270;20.984;2023-01-29T06:26:06;101238.02;;;-1.55;79.53
54924;BME280;40825;52.270;20.984;2023-01-29T06:28:33;101244.80;;;-1.54;79.61
54924;BME280;40825;52.270;20.984;2023-01-29T06:31:00;101241.73;;;-1.53;79.62
54924;BME280;40825;52.270;20.984;2023-01-29T06:33:27;101240.58;;;-1.51;79.64
54924;BME280;40825;52.270;20.984;2023-01-29T06:36:00;101233.15;;;-1.49;79.58
54924;BME280;40825;52.270;20.984;2023-01-29T06:38:26;101233.70;;;-1.50;79.40
54924;BME280;40825;52.270;20.984;2023-01-29T06:40:52;101234.73;;;-1.49;79.36
54924;BME280;40825;52.270;20.984;2023-01-29T06:43:19;101236.45;;;-1.49;79.24
54924;BME280;40825;52.270;20.984;2023-01-29T06:45:49;101239.23;;;-1.49;79.42
54924;BME280;40825;52.270;20.984;2023-01-29T06:48:15;101238.60;;;-1.47;79.40
54924;BME280;40825;52.270;20.984;2023-01-29T06:50:41;101236.30;;;-1.47;79.33
54924;BME280;40825;52.270;20.984;2023-01-29T06:53:06;101237.66;;;-1.46;79.31
54924;BME280;40825;52.270;20.984;2023-01-29T06:55:32;101238.75;;;-1.44;79.32
54924;BME280;40825;52.270;20.984;2023-01-29T06:57:57;101238.45;;;-1.44;79.18
54924;BME280;40825;52.270;20.984;2023-01-29T07:00:22;101240.10;;;-1.43;79.21
54924;BME280;40825;52.270;20.984;2023-01-29T07:02:48;101239.09;;;-1.41;79.07
54924;BME280;40825;52.270;20.984;2023-01-29T07:05:14;101236.00;;;-1.39;79.04
54924;BME280;40825;52.270;20.984;2023-01-29T07:07:40;101232.08;;;-1.37;79.12
54924;BME280;40825;52.270;20.984;2023-01-29T07:10:05;101223.98;;;-1.36;78.90
54924;BME280;40825;52.270;20.984;2023-01-29T07:12:31;101214.44;;;-1.34;79.03
54924;BME280;40825;52.270;20.984;2023-01-29T07:14:57;101209.31;;;-1.30;79.10
54924;BME280;40825;52.270;20.984;2023-01-29T07:17:22;101207.59;;;-1.28;78.70
54924;BME280;40825;52.270;20.984;2023-01-29T07:19:48;101210.97;;;-1.26;78.70
54924;BME280;40825;52.270;20.984;2023-01-29T07:22:13;101219.27;;;-1.24;78.71
54924;BME280;40825;52.270;20.984;2023-01-29T07:24:41;101217.79;;;-1.23;78.49
54924;BME280;40825;52.270;20.984;2023-01-29T07:27:06;101217.77;;;-1.22;78.55
54924;BME280;40825;52.270;20.984;2023-01-29T07:29:32;101218.16;;;-1.20;78.58
54924;BME280;40825;52.270;20.984;2023-01-29T07:31:57;101223.79;;;-1.18;78.54
54924;BME280;40825;52.270;20.984;2023-01-29T07:34:23;101234.89;;;-1.17;78.48
54924;BME280;40825;52.270;20.984;2023-01-29T07:36:52;101243.23;;;-1.16;78.47
54924;BME280;40825;52.270;20.984;2023-01-29T07:39:17;101239.30;;;-1.15;78.42
54924;BME280;40825;52.270;20.984;2023-01-29T07:41:43;101239.55;;;-1.13;78.38
54924;BME280;40825;52.270;20.984;2023-01-29T07:44:08;101240.55;;;-1.09;78.33
54924;BME280;40825;52.270;20.984;2023-01-29T07:46:34;101246.23;;;-1.05;78.37
54924;BME280;40825;52.270;20.984;2023-01-29T07:49:00;101239.85;;;-1.01;78.50
54924;BME280;40825;52.270;20.984;2023-01-29T07:51:25;101238.59;;;-0.97;78.05
54924;BME280;40825;52.270;20.984;2023-01-29T07:53:51;101232.09;;;-0.97;77.52
54924;BME280;40825;52.270;20.984;2023-01-29T07:56:17;101225.90;;;-0.95;77.83
54924;BME280;40825;52.270;20.984;2023-01-29T07:58:43;101222.41;;;-0.95;77.51
54924;BME280;40825;52.270;20.984;2023-01-29T08:01:08;101220.02;;;-0.93;77.31
54924;BME280;40825;52.270;20.984;2023-01-29T08:03:34;101216.16;;;-0.93;77.28
54924;BME280;40825;52.270;20.984;2023-01-29T08:06:02;101224.36;;;-0.93;77.27
54924;BME280;40825;52.270;20.984;2023-01-29T08:08:28;101225.40;;;-0.93;77.48
54924;BME280;40825;52.270;20.984;2023-01-29T08:10:53;101226.54;;;-0.92;77.39
54924;BME280;40825;52.270;20.984;2023-01-29T08:13:19;101222.88;;;-0.92;77.56
54924;BME280;40825;52.270;20.984;2023-01-29T08:15:44;101211.46;;;-0.91;77.39
54924;BME280;40825;52.270;20.984;2023-01-29T08:18:11;101199.57;;;-0.91;77.46
54924;BME280;40825;52.270;20.984;2023-01-29T08:20:36;101196.32;;;-0.89;77.19
54924;BME280;40825;52.270;20.984;2023-01-29T08:23:11;101198.50;;;-0.90;76.85
54924;BME280;40825;52.270;20.984;2023-01-29T08:25:37;101197.89;;;-0.89;77.01
54924;BME280;40825;52.270;20.984;2023-01-29T08:28:03;101197.46;;;-0.82;77.35
54924;BME280;40825;52.270;20.984;2023-01-29T08:30:31;101199.06;;;-0.79;76.79
54924;BME280;40825;52.270;20.984;2023-01-29T08:32:57;101203.48;;;-0.75;77.14
54924;BME280;40825;52.270;20.984;2023-01-29T08:35:23;101206.03;;;-0.74;77.10
54924;BME280;40825;52.270;20.984;2023-01-29T08:37:56;101205.56;;;-0.72;76.57
54924;BME280;40825;52.270;20.984;2023-01-29T08:40:24;101207.66;;;-0.69;76.88
54924;BME280;40825;52.270;20.984;2023-01-29T08:42:50;101204.11;;;-0.65;76.93
54924;BME280;40825;52.270;20.984;2023-01-29T08:45:15;101209.95;;;-0.66;76.30
54924;BME280;40825;52.270;20.984;2023-01-29T08:47:47;101203.04;;;-0.67;76.40
54924;BME280;40825;52.270;20.984;2023-01-29T08:50:14;101204.58;;;-0.67;76.42
54924;BME280;40825;52.270;20.984;2023-01-29T08:52:40;101196.36;;;-0.67;76.40
54924;BME280;40825;52.270;20.984;2023-01-29T08:55:06;101191.80;;;-0.67;76.34
54924;BME280;40825;52.270;20.984;2023-01-29T08:57:31;101191.31;;;-0.65;76.28
54924;BME280;40825;52.270;20.984;2023-01-29T08:59:57;101189.34;;;-0.61;76.43
54924;BME280;40825;52.270;20.984;2023-01-29T09:02:22;101191.26;;;-0.56;76.44
54924;BME280;40825;52.270;20.984;2023-01-29T09:04:48;101192.46;;;-0.55;76.22
54924;BME280;40825;52.270;20.984;2023-01-29T09:07:14;101192.15;;;-0.50;76.55
54924;BME280;40825;52.270;20.984;2023-01-29T09:09:39;101187.23;;;-0.50;76.57
54924;BME280;40825;52.270;20.984;2023-01-29T09:12:05;101183.45;;;-0.43;76.75
54924;BME280;40825;52.270;20.984;2023-01-29T09:14:30;101175.90;;;-0.39;76.62
54924;BME280;40825;52.270;20.984;2023-01-29T09:16:57;101171.10;;;-0.44;77.15
54924;BME280;40825;52.270;20.984;2023-01-29T09:19:22;101175.67;;;-0.47;77.78
54924;BME280;40825;52.270;20.984;2023-01-29T09:21:48;101176.25;;;-0.45;78.02
54924;BME280;40825;52.270;20.984;2023-01-29T09:24:14;101166.80;;;-0.42;78.36
54924;BME280;40825;52.270;20.984;2023-01-29T09:26:40;101175.54;;;-0.45;78.47
54924;BME280;40825;52.270;20.984;2023-01-29T09:29:06;101176.16;;;-0.47;78.95
54924;BME280;40825;52.270;20.984;2023-01-29T09:31:33;101169.21;;;-0.47;78.88
54924;BME280;40825;52.270;20.984;2023-01-29T09:33:58;101170.70;;;-0.51;79.12
54924;BME280;40825;52.270;20.984;2023-01-29T09:36:24;101161.21;;;-0.50;79.30
54924;BME280;40825;52.270;20.984;2023-01-29T09:38:49;101162.33;;;-0.46;78.90
54924;BME280;40825;52.270;20.984;2023-01-29T09:44:09;101158.59;;;-0.29;79.14
54924;BME280;40825;52.270;20.984;2023-01-29T09:46:42;101152.77;;;-0.20;78.97
54924;BME280;40825;52.270;20.984;2023-01-29T09:52:06;101151.64;;;-0.21;79.24
54924;BME280;40825;52.270;20.984;2023-01-29T09:54:56;101148.39;;;-0.17;79.63
54924;BME280;40825;52.270;20.984;2023-01-29T09:57:45;101146.45;;;-0.14;79.72
54924;BME280;40825;52.270;20.984;2023-01-29T10:00:23;101148.13;;;-0.08;79.78
54924;BME280;40825;52.270;20.984;2023-01-29T10:03:23;101140.61;;;-0.13;80.26
54924;BME280;40825;52.270;20.984;2023-01-29T10:06:04;101136.04;;;-0.08;80.69
54924;BME280;40825;52.270;20.984;2023-01-29T10:09:02;101135.48;;;0.03;80.62
54924;BME280;40825;52.270;20.984;2023-01-29T10:14:58;101134.02;;;-0.01;80.74
54924;BME280;40825;52.270;20.984;2023-01-29T10:25:41;101111.64;;;-0.22;82.43
54924;BME280;40825;52.270;20.984;2023-01-29T10:28:35;101110.11;;;-0.25;82.57
54924;BME280;40825;52.270;20.984;2023-01-29T10:31:07;101111.71;;;-0.29;82.93
54924;BME280;40825;52.270;20.984;2023-01-29T10:33:44;101114.29;;;-0.28;83.76
54924;BME280;40825;52.270;20.984;2023-01-29T10:36:18;101114.19;;;-0.21;83.45
54924;BME280;40825;52.270;20.984;2023-01-29T10:38:47;101115.83;;;-0.14;83.80
54924;BME280;40825;52.270;20.984;2023-01-29T10:41:45;101113.20;;;-0.12;83.41
54924;BME280;40825;52.270;20.984;2023-01-29T10:44:14;101108.42;;;-0.14;83.35
54924;BME280;40825;52.270;20.984;2023-01-29T10:50:11;101115.05;;;-0.21;83.76
54924;BME280;40825;52.270;20.984;2023-01-29T10:56:11;101106.39;;;-0.22;84.38
54924;BME280;40825;52.270;20.984;2023-01-29T10:59:48;101101.46;;;-0.27;84.26
54924;BME280;40825;52.270;20.984;2023-01-29T11:01:59;101101.19;;;-0.25;84.04
54924;BME280;40825;52.270;20.984;2023-01-29T11:04:29;101094.06;;;-0.24;84.28
54924;BME280;40825;52.270;20.984;2023-01-29T11:06:56;101096.61;;;-0.23;84.26
54924;BME280;40825;52.270;20.984;2023-01-29T11:12:15;101088.83;;;-0.24;83.65
54924;BME280;40825;52.270;20.984;2023-01-29T11:14:48;101085.56;;;-0.22;83.61
54924;BME280;40825;52.270;20.984;2023-01-29T11:17:20;101083.77;;;-0.22;83.27
54924;BME280;40825;52.270;20.984;2023-01-29T11:19:48;101079.89;;;-0.21;83.12
54924;BME280;40825;52.270;20.984;2023-01-29T11:22:22;101072.88;;;-0.18;83.52
54924;BME280;40825;52.270;20.984;2023-01-29T11:25:15;101065.44;;;-0.12;83.42
54924;BME280;40825;52.270;20.984;2023-01-29T11:27:56;101057.59;;;-0.12;83.27
54924;BME280;40825;52.270;20.984;2023-01-29T11:30:36;101050.41;;;-0.15;83.77
54924;BME280;40825;52.270;20.984;2023-01-29T11:35:34;101032.88;;;-0.14;83.57
54924;BME280;40825;52.270;20.984;2023-01-29T11:40:39;101024.19;;;-0.18;83.81
54924;BME280;40825;52.270;20.984;2023-01-29T11:45:42;101015.45;;;-0.25;84.05
54924;BME280;40825;52.270;20.984;2023-01-29T11:48:15;101010.30;;;-0.27;83.93
54924;BME280;40825;52.270;20.984;2023-01-29T11:50:41;101008.09;;;-0.28;83.84
54924;BME280;40825;52.270;20.984;2023-01-29T11:53:43;101006.73;;;-0.28;83.89
54924;BME280;40825;52.270;20.984;2023-01-29T11:56:21;101003.65;;;-0.29;84.43
54924;BME280;40825;52.270;20.984;2023-01-29T11:58:48;100996.15;;;-0.30;84.62
54924;BME280;40825;52.270;20.984;2023-01-29T12:01:22;100998.48;;;-0.31;84.65
54924;BME280;40825;52.270;20.984;2023-01-29T12:03:52;100995.10;;;-0.32;84.84
54924;BME280;40825;52.270;20.984;2023-01-29T12:06:27;100985.17;;;-0.38;84.76
54924;BME280;40825;52.270;20.984;2023-01-29T12:08:57;100983.81;;;-0.41;85.11
54924;BME280;40825;52.270;20.984;2023-01-29T12:11:30;100988.05;;;-0.44;85.15
54924;BME280;40825;52.270;20.984;2023-01-29T12:14:01;100986.85;;;-0.47;85.49
54924;BME280;40825;52.270;20.984;2023-01-29T12:16:33;100974.80;;;-0.50;85.46
54924;BME280;40825;52.270;20.984;2023-01-29T12:21:33;100967.41;;;-0.55;85.78
54924;BME280;40825;52.270;20.984;2023-01-29T12:32:00;100958.45;;;-0.49;85.97
54924;BME280;40825;52.270;20.984;2023-01-29T12:34:44;100956.98;;;-0.48;86.03
54924;BME280;40825;52.270;20.984;2023-01-29T12:37:43;100957.48;;;-0.45;85.89
54924;BME280;40825;52.270;20.984;2023-01-29T12:40:15;100946.33;;;-0.46;85.91
54924;BME280;40825;52.270;20.984;2023-01-29T12:42:51;100944.86;;;-0.47;85.98
54924;BME280;40825;52.270;20.984;2023-01-29T12:45:24;100945.48;;;-0.46;86.57
54924;BME280;40825;52.270;20.984;2023-01-29T12:47:54;100941.77;;;-0.46;86.71
54924;BME280;40825;52.270;20.984;2023-01-29T12:50:25;100934.89;;;-0.47;86.71
54924;BME280;40825;52.270;20.984;2023-01-29T12:55:53;100927.35;;;-0.49;86.66
54924;BME280;40825;52.270;20.984;2023-01-29T12:58:23;100929.36;;;-0.51;86.87
54924;BME280;40825;52.270;20.984;2023-01-29T13:00:56;100920.50;;;-0.49;87.13
54924;BME280;40825;52.270;20.984;2023-01-29T13:03:24;100917.02;;;-0.46;86.93
54924;BME280;40825;52.270;20.984;2023-01-29T13:06:34;100918.38;;;-0.43;86.90
54924;BME280;40825;52.270;20.984;2023-01-29T13:09:03;100935.27;;;-0.45;86.97
54924;BME280;40825;52.270;20.984;2023-01-29T13:11:40;100935.73;;;-0.47;87.66
54924;BME280;40825;52.270;20.984;2023-01-29T13:16:42;100947.15;;;-0.42;87.50
54924;BME280;40825;52.270;20.984;2023-01-29T13:19:26;100946.29;;;-0.40;87.17
54924;BME280;40825;52.270;20.984;2023-01-29T13:21:55;100942.67;;;-0.38;87.29
54924;BME280;40825;52.270;20.984;2023-01-29T13:24:24;100937.35;;;-0.39;88.58
54924;BME280;40825;52.270;20.984;2023-01-29T13:26:52;100937.73;;;-0.43;88.68
54924;BME280;40825;52.270;20.984;2023-01-29T13:29:28;100934.22;;;-0.40;88.94
54924;BME280;40825;52.270;20.984;2023-01-29T13:31:55;100933.35;;;-0.39;88.74
54924;BME280;40825;52.270;20.984;2023-01-29T13:34:25;100927.95;;;-0.40;89.58
54924;BME280;40825;52.270;20.984;2023-01-29T13:36:59;100927.52;;;-0.39;89.39
54924;BME280;40825;52.270;20.984;2023-01-29T13:39:31;100925.35;;;-0.40;89.24
54924;BME280;40825;52.270;20.984;2023-01-29T13:41:58;100919.05;;;-0.43;89.48
54924;BME280;40825;52.270;20.984;2023-01-29T13:44:34;100908.50;;;-0.52;90.45
54924;BME280;40825;52.270;20.984;2023-01-29T13:47:04;100900.66;;;-0.58;90.73
54924;BME280;40825;52.270;20.984;2023-01-29T13:52:30;100895.14;;;-0.59;89.82
54924;BME280;40825;52.270;20.984;2023-01-29T13:54:58;100901.00;;;-0.61;90.19
54924;BME280;40825;52.270;20.984;2023-01-29T13:57:45;100903.69;;;-0.61;90.74
54924;BME280;40825;52.270;20.984;2023-01-29T14:05:55;100903.80;;;-0.63;91.71
54924;BME280;40825;52.270;20.984;2023-01-29T14:13:38;100923.51;;;-0.65;92.35
54924;BME280;40825;52.270;20.984;2023-01-29T14:18:31;100938.36;;;-0.67;91.44
54924;BME280;40825;52.270;20.984;2023-01-29T14:21:04;100945.46;;;-0.69;92.20
54924;BME280;40825;52.270;20.984;2023-01-29T14:26:49;100936.92;;;-0.72;91.88
54924;BME280;40825;52.270;20.984;2023-01-29T14:29:24;100928.38;;;-0.70;91.70
54924;BME280;40825;52.270;20.984;2023-01-29T14:34:35;100924.54;;;-0.73;91.68
54924;BME280;40825;52.270;20.984;2023-01-29T14:42:34;100909.64;;;-0.72;91.99
54924;BME280;40825;52.270;20.984;2023-01-29T14:45:25;100904.90;;;-0.72;92.09
54924;BME280;40825;52.270;20.984;2023-01-29T14:47:54;100903.36;;;-0.72;92.17
54924;BME280;40825;52.270;20.984;2023-01-29T14:53:04;100893.21;;;-0.79;93.16
54924;BME280;40825;52.270;20.984;2023-01-29T14:55:40;100900.93;;;-0.82;93.43
54924;BME280;40825;52.270;20.984;2023-01-29T14:58:16;100903.83;;;-0.84;92.83
54924;BME280;40825;52.270;20.984;2023-01-29T15:00:45;100906.61;;;-0.84;93.23
54924;BME280;40825;52.270;20.984;2023-01-29T15:03:21;100912.61;;;-0.82;92.88
54924;BME280;40825;52.270;20.984;2023-01-29T15:05:52;100912.38;;;-0.81;93.78
54924;BME280;40825;52.270;20.984;2023-01-29T15:11:19;100905.65;;;-0.80;93.76
54924;BME280;40825;52.270;20.984;2023-01-29T15:14:07;100894.58;;;-0.79;93.58